Time;durP1;ratioP1;P1;durP2;ratioP2;P2;SDS_P1;SDS_P2;PMS_P1;PMS_P2;Temp;Humidity;BMP_temperature;BMP_pressure;BME280_temperature;BME280_humidity;BME280_pressure;Samples;Min_cycle;Max_cycle;Signal;HPM_P1;HPM_P2
2022/10/09 00:01:06;;;;;;;30.63;22.63;;;;;;;19.32;67.53;101568.16;4984230;28;20403;-80
2022/10/09 00:03:34;;;;;;;28.48;22.33;;;;;;;19.30;67.98;101581.81;5000540;28;20054;-82
2022/10/09 00:06:02;;;;;;;30.27;22.50;;;;;;;19.26;67.86;101574.25;4984475;28;20379;-82
2022/10/09 00:08:29;;;;;;;33.30;23.30;;;;;;;19.32;67.56;101603.16;4985889;28;20484;-82
2022/10/09 00:10:56;;;;;;;30.63;22.77;;;;;;;19.34;67.53;101615.44;5018622;28;20154;-81
2022/10/09 00:13:22;;;;;;;30.65;23.20;;;;;;;19.14;67.40;101587.19;5005173;28;20600;-79
2022/10/09 00:15:49;;;;;;;32.90;21.63;;;;;;;19.26;67.74;101615.47;5020643;28;20049;-82
2022/10/09 00:18:17;;;;;;;31.77;23.90;;;;;;;18.71;67.86;101519.22;5000698;28;20496;-81
2022/10/09 00:20:45;;;;;;;29.25;23.55;;;;;;;18.73;67.51;101522.59;4984164;28;20057;-82
2022/10/09 00:23:15;;;;;;;40.03;27.83;;;;;;;19.28;67.71;101616.13;4984565;28;20121;-83
2022/10/09 00:25:55;;;;;;;38.30;27.23;;;;;;;18.85;67.62;101555.41;4985947;28;20082;-80
2022/10/09 00:28:25;;;;;;;37.33;27.70;;;;;;;19.24;67.49;101619.34;4999219;28;20492;-81
2022/10/09 00:30:52;;;;;;;42.10;28.38;;;;;;;19.24;67.63;101620.16;4988554;28;20088;-81
2022/10/09 00:33:19;;;;;;;47.17;29.83;;;;;;;19.01;67.70;101587.72;5004063;28;20049;-84
2022/10/09 00:35:46;;;;;;;46.25;29.23;;;;;;;19.15;67.81;101607.72;5004235;28;20058;-80
2022/10/09 00:38:13;;;;;;;38.58;27.75;;;;;;;19.07;67.56;101596.97;5017993;28;20056;-81
2022/10/09 00:40:40;;;;;;;37.35;28.20;;;;;;;18.84;67.93;101573.41;5023669;28;20053;-79
2022/10/09 00:43:36;;;;;;;45.28;29.65;;;;;;;19.08;67.55;101625.53;5008897;28;20049;-82
2022/10/09 00:46:03;;;;;;;36.63;28.10;;;;;;;18.77;67.56;101557.09;5023778;28;20069;-82
2022/10/09 00:48:30;;;;;;;42.63;31.85;;;;;;;19.15;67.28;101611.28;5003474;28;20038;-82
2022/10/09 00:50:59;;;;;;;44.85;31.52;;;;;;;19.16;67.24;101602.16;4987514;28;20058;-82
2022/10/09 00:53:28;;;;;;;44.20;29.90;;;;;;;19.12;67.66;101602.69;4989003;28;20520;-80
2022/10/09 00:55:56;;;;;;;42.17;29.48;;;;;;;19.07;68.00;101600.47;4987397;28;20053;-81
2022/10/09 00:58:24;;;;;;;36.08;27.90;;;;;;;19.01;68.62;101595.78;5003330;28;20064;-81
2022/10/09 01:00:51;;;;;;;44.30;30.70;;;;;;;18.99;68.29;101595.94;5023219;28;20049;-83
2022/10/09 01:03:17;;;;;;;42.22;30.83;;;;;;;18.92;68.97;101605.69;5006507;28;20141;-82
2022/10/09 01:05:56;;;;;;;40.35;29.55;;;;;;;18.86;69.07;101600.13;5023021;28;20104;-82
2022/10/09 01:08:29;;;;;;;38.97;26.92;;;;;;;18.25;69.18;101500.00;5005604;28;20061;-81
2022/10/09 01:11:25;;;;;;;38.28;26.58;;;;;;;18.66;69.29;101564.59;5007073;28;20546;-81
2022/10/09 01:14:00;;;;;;;41.78;27.35;;;;;;;18.75;69.63;101580.59;5024697;28;20081;-81
2022/10/09 01:16:43;;;;;;;41.05;28.25;;;;;;;18.70;69.30;101558.72;5023675;28;20199;-81
2022/10/09 01:19:26;;;;;;;38.83;27.15;;;;;;;18.79;69.41;101591.91;5008059;28;20133;-81
2022/10/09 01:22:22;;;;;;;37.75;26.92;;;;;;;18.55;69.34;101549.66;5005668;28;20391;-81
2022/10/09 01:25:05;;;;;;;38.58;25.88;;;;;;;18.75;69.80;101588.66;5006841;28;20142;-82
2022/10/09 01:27:33;;;;;;;40.95;25.85;;;;;;;17.94;69.73;101449.59;5006300;28;20429;-82
2022/10/09 01:30:06;;;;;;;32.83;24.52;;;;;;;18.48;69.79;101541.41;5003455;28;20050;-82
2022/10/09 01:32:36;;;;;;;38.58;25.33;;;;;;;18.75;69.63;101598.59;4987063;28;20509;-82
2022/10/09 01:35:05;;;;;;;39.30;26.60;;;;;;;18.61;69.25;101575.03;5003843;28;20050;-82
2022/10/09 01:37:34;;;;;;;37.70;27.73;;;;;;;18.86;68.12;101600.13;5006102;28;20093;-82
2022/10/09 01:40:03;;;;;;;47.17;31.65;;;;;;;18.56;68.23;101581.72;4997580;28;20060;-81
2022/10/09 01:42:31;;;;;;;49.70;38.25;;;;;;;18.60;68.28;101611.00;5007807;28;20060;-82
2022/10/09 01:44:57;;;;;;;64.95;43.67;;;;;;;18.31;68.58;101569.25;5022332;28;20050;-83
2022/10/09 01:47:25;;;;;;;72.20;50.60;;;;;;;18.20;68.83;101573.06;5021735;28;20081;-83
2022/10/09 01:49:54;;;;;;;77.53;52.72;;;;;;;17.14;69.62;101400.75;4992227;28;20052;-81
2022/10/09 01:52:32;;;;;;;78.45;56.25;;;;;;;18.31;69.54;101601.50;4986232;28;20053;-81
2022/10/09 01:55:12;;;;;;;73.18;53.88;;;;;;;18.03;69.54;101561.41;4986377;28;20081;-81
2022/10/09 01:57:49;;;;;;;84.88;58.20;;;;;;;17.79;69.35;101537.97;4986372;28;20046;-81
2022/10/09 02:00:16;;;;;;;82.93;55.45;;;;;;;18.21;69.49;101612.41;5005780;28;20495;-81
2022/10/09 02:02:45;;;;;;;80.85;55.92;;;;;;;18.07;69.84;101613.84;5021534;28;20516;-81
2022/10/09 02:05:19;;;;;;;80.03;54.65;;;;;;;17.92;70.31;101585.91;5022154;28;20050;-81
2022/10/09 02:07:46;;;;;;;78.00;53.42;;;;;;;17.92;70.07;101586.72;5005981;28;20136;-81
2022/10/09 02:10:15;;;;;;;72.47;47.97;;;;;;;17.87;69.80;101578.31;5004664;28;20052;-81
2022/10/09 02:12:48;;;;;;;60.75;42.85;;;;;;;17.96;69.85;101589.09;5005067;28;20165;-83
2022/10/09 02:15:15;;;;;;;53.83;38.13;;;;;;;18.04;69.82;101610.66;5021217;28;20136;-82
2022/10/09 02:17:46;;;;;;;53.22;34.55;;;;;;;17.95;69.77;101604.38;5005191;28;20492;-83
2022/10/09 02:20:21;;;;;;;41.17;31.05;;;;;;;17.96;69.01;101597.97;5005584;28;20140;-82
2022/10/09 02:22:48;;;;;;;42.35;28.92;;;;;;;17.69;68.43;101537.22;5005185;28;20499;-82
2022/10/09 02:25:17;;;;;;;40.97;29.08;;;;;;;18.00;68.68;101596.66;5006775;28;20045;-80
2022/10/09 02:27:45;;;;;;;38.60;27.48;;;;;;;18.10;68.06;101610.81;5006394;28;20046;-81
2022/10/09 02:30:13;;;;;;;36.47;25.65;;;;;;;18.18;68.25;101611.84;5006527;28;20041;-81
2022/10/09 02:32:40;;;;;;;39.75;29.60;;;;;;;17.77;68.73;101568.66;5005327;28;20076;-81
2022/10/09 02:35:07;;;;;;;32.92;24.48;;;;;;;17.93;68.70;101588.41;5005675;28;20054;-81
2022/10/09 02:37:34;;;;;;;40.67;26.60;;;;;;;18.00;68.76;101606.59;5006235;28;20439;-82
2022/10/09 02:40:00;;;;;;;34.15;26.13;;;;;;;17.92;69.08;101602.03;5005356;28;20052;-80
2022/10/09 02:42:30;;;;;;;29.15;23.40;;;;;;;17.77;69.32;101579.38;5004874;28;20300;-82
2022/10/09 02:44:56;;;;;;;36.33;25.27;;;;;;;17.85;69.29;101599.13;5021528;28;20563;-81
2022/10/09 02:47:23;;;;;;;31.35;22.80;;;;;;;17.90;69.01;101606.69;5004865;28;20504;-81
2022/10/09 02:49:49;;;;;;;27.52;18.77;;;;;;;17.83;68.75;101593.06;4993131;28;20057;-81
2022/10/09 02:52:16;;;;;;;24.58;17.00;;;;;;;17.85;68.10;101598.28;4990997;28;20568;-81
2022/10/09 02:54:43;;;;;;;18.98;16.25;;;;;;;17.66;68.07;101559.03;4988681;28;20477;-81
2022/10/09 02:57:09;;;;;;;24.45;18.35;;;;;;;18.04;67.81;101606.09;4985877;28;20276;-82
2022/10/09 02:59:39;;;;;;;23.27;16.25;;;;;;;18.07;67.59;101605.78;5003466;28;20302;-82
2022/10/09 03:02:06;;;;;;;21.67;17.35;;;;;;;18.04;67.94;101616.84;5021009;28;20141;-81
2022/10/09 03:04:32;;;;;;;20.88;16.92;;;;;;;17.96;68.29;101624.84;5021238;28;20448;-81
2022/10/09 03:06:59;;;;;;;21.83;16.23;;;;;;;17.62;68.22;101571.09;5001153;28;20058;-81
2022/10/09 03:09:26;;;;;;;17.35;15.02;;;;;;;17.96;68.11;101630.22;4992027;28;20069;-81
2022/10/09 03:11:58;;;;;;;26.05;16.85;;;;;;;18.02;67.55;101618.00;5004748;28;20042;-82
2022/10/09 03:14:25;;;;;;;19.00;14.63;;;;;;;18.07;67.43;101626.44;5004160;28;20048;-81
2022/10/09 03:16:52;;;;;;;20.08;14.82;;;;;;;18.02;66.88;101624.22;5020749;28;20386;-80
2022/10/09 03:19:19;;;;;;;20.80;15.23;;;;;;;18.00;67.18;101634.28;5004481;28;20056;-82
2022/10/09 03:21:45;;;;;;;21.02;15.13;;;;;;;18.13;66.63;101636.53;5005871;28;20496;-80
2022/10/09 03:24:12;;;;;;;19.95;16.05;;;;;;;18.03;67.30;101625.91;5004309;28;20056;-80
2022/10/09 03:26:38;;;;;;;22.17;15.25;;;;;;;17.73;67.41;101586.94;5004245;28;20057;-80
2022/10/09 03:29:05;;;;;;;19.00;15.40;;;;;;;17.39;67.08;101541.28;5001835;28;20340;-81
2022/10/09 03:31:31;;;;;;;22.10;15.93;;;;;;;17.89;67.79;101613.09;5001788;28;20117;-79
2022/10/09 03:34:18;;;;;;;16.30;14.27;;;;;;;17.11;67.93;101478.84;4998413;28;20667;-81
2022/10/09 03:36:44;;;;;;;20.90;16.20;;;;;;;17.72;67.42;101571.84;5002517;28;20511;-81
2022/10/09 03:39:11;;;;;;;20.17;14.90;;;;;;;18.12;66.91;101642.91;5000343;28;20057;-81
2022/10/09 03:41:38;;;;;;;16.70;14.25;;;;;;;18.16;66.92;101638.91;5000979;28;20145;-82
2022/10/09 03:44:04;;;;;;;20.35;14.77;;;;;;;17.94;66.67;101594.66;4985851;28;20050;-80
2022/10/09 03:46:31;;;;;;;21.40;14.98;;;;;;;17.99;66.88;101608.44;5004075;28;20057;-81
2022/10/09 03:48:57;;;;;;;24.10;15.65;;;;;;;18.14;66.79;101628.31;4996808;28;20126;-80
2022/10/09 03:51:24;;;;;;;21.60;16.67;;;;;;;18.18;66.77;101630.66;4985778;28;20497;-81
2022/10/09 03:53:52;;;;;;;22.58;16.05;;;;;;;18.20;67.27;101636.72;4984492;28;20134;-79
2022/10/09 03:56:18;;;;;;;23.65;15.07;;;;;;;18.24;67.77;101648.84;4984542;28;20046;-79
2022/10/09 03:58:45;;;;;;;22.20;16.10;;;;;;;18.32;66.52;101652.41;4994110;28;20052;-81
2022/10/09 04:01:11;;;;;;;29.20;19.08;;;;;;;18.23;66.84;101637.25;5022250;28;20144;-81
2022/10/09 04:03:38;;;;;;;22.75;15.85;;;;;;;18.10;66.60;101621.56;5024193;28;20504;-82
2022/10/09 04:06:05;;;;;;;31.17;22.33;;;;;;;18.15;67.08;101642.59;5024287;28;20088;-79
2022/10/09 04:08:31;;;;;;;29.05;21.17;;;;;;;17.96;67.14;101624.84;5024040;28;20576;-80
2022/10/09 04:11:00;;;;;;;34.75;23.35;;;;;;;18.07;67.88;101648.75;5008956;28;20388;-79
2022/10/09 04:13:26;;;;;;;36.53;25.67;;;;;;;17.93;67.91;101630.56;5024010;28;20042;-81
2022/10/09 04:15:54;;;;;;;34.13;25.08;;;;;;;17.83;68.12;101616.41;5024165;28;20419;-79
2022/10/09 04:18:21;;;;;;;34.42;26.08;;;;;;;17.60;68.33;101567.72;5007384;28;20071;-82
2022/10/09 04:20:50;;;;;;;37.83;24.85;;;;;;;18.01;68.01;101633.31;5007722;28;20068;-81
2022/10/09 04:23:21;;;;;;;29.55;21.88;;;;;;;17.89;67.92;101607.72;5007190;28;20483;-81
2022/10/09 04:25:52;;;;;;;38.45;24.85;;;;;;;18.15;68.16;101650.66;5007688;28;20408;-81
2022/10/09 04:28:19;;;;;;;35.67;27.73;;;;;;;18.04;68.41;101635.66;5005391;28;20053;-81
2022/10/09 04:30:46;;;;;;;37.72;26.63;;;;;;;18.06;68.63;101636.34;5023010;28;20476;-80
2022/10/09 04:33:12;;;;;;;49.60;31.02;;;;;;;18.01;68.60;101627.94;5005945;28;20085;-81
2022/10/09 04:35:49;;;;;;;49.75;31.83;;;;;;;18.03;68.60;101635.81;4995195;28;20041;-81
2022/10/09 04:38:16;;;;;;;43.25;28.90;;;;;;;17.96;68.41;101624.84;5001947;28;20062;-80
2022/10/09 04:40:43;;;;;;;40.78;30.13;;;;;;;18.12;68.73;101646.44;4989990;28;20123;-81
2022/10/09 04:43:10;;;;;;;40.63;28.55;;;;;;;18.13;68.90;101642.75;5002057;28;20561;-81
2022/10/09 04:45:40;;;;;;;45.45;30.92;;;;;;;18.14;69.42;101644.44;4986493;28;20433;-80
2022/10/09 04:48:06;;;;;;;32.80;23.13;;;;;;;18.12;68.33;101633.00;5018561;28;20042;-79
2022/10/09 04:50:33;;;;;;;27.30;21.67;;;;;;;18.40;67.79;101651.63;4986556;28;20100;-81
2022/10/09 04:53:00;;;;;;;26.13;19.88;;;;;;;18.38;67.47;101652.78;4987720;28;20074;-82
2022/10/09 04:55:26;;;;;;;24.92;19.65;;;;;;;18.43;67.43;101653.97;4987554;28;20054;-81
2022/10/09 04:57:53;;;;;;;24.75;19.55;;;;;;;18.46;67.45;101659.00;4988553;28;20255;-80
2022/10/09 05:00:19;;;;;;;26.60;18.65;;;;;;;18.28;67.55;101623.34;5022909;28;20058;-80
2022/10/09 05:02:46;;;;;;;24.00;18.75;;;;;;;17.76;67.95;101542.81;5006486;28;20149;-82
2022/10/09 05:05:13;;;;;;;26.33;19.60;;;;;;;18.51;68.19;101661.22;5006896;28;20054;-80
2022/10/09 05:07:40;;;;;;;30.38;20.33;;;;;;;18.48;68.34;101656.19;5006496;28;20042;-81
2022/10/09 05:10:07;;;;;;;30.63;20.27;;;;;;;18.50;68.43;101660.38;5006624;28;20136;-81
2022/10/09 05:12:33;;;;;;;28.70;20.77;;;;;;;18.36;68.95;101642.19;5006600;28;20294;-80
2022/10/09 05:15:00;;;;;;;29.73;20.92;;;;;;;18.23;68.58;101626.50;5023234;28;20450;-80
2022/10/09 05:17:27;;;;;;;31.55;20.08;;;;;;;18.42;69.23;101652.28;5008095;28;20775;-81
2022/10/09 05:19:54;;;;;;;27.58;19.98;;;;;;;18.49;68.82;101660.53;5006388;28;20078;-79
2022/10/09 05:22:20;;;;;;;30.98;22.50;;;;;;;18.50;68.83;101665.75;5006463;28;20057;-81
2022/10/09 05:24:47;;;;;;;32.85;21.17;;;;;;;18.58;68.96;101663.09;5006339;28;20065;-81
2022/10/09 05:27:14;;;;;;;30.73;22.63;;;;;;;18.45;68.79;101646.59;5006223;28;20057;-80
2022/10/09 05:29:40;;;;;;;33.53;23.65;;;;;;;18.42;68.61;101636.13;5006505;28;20188;-82
2022/10/09 05:32:07;;;;;;;28.13;22.65;;;;;;;18.40;68.86;101634.63;5007807;28;20108;-80
2022/10/09 05:34:34;;;;;;;26.48;21.98;;;;;;;18.42;68.41;101638.81;5022918;28;20042;-81
2022/10/09 05:37:01;;;;;;;32.78;23.90;;;;;;;18.33;68.26;101613.78;5007350;28;20153;-80
2022/10/09 05:39:27;;;;;;;34.78;24.23;;;;;;;18.61;67.94;101655.69;5000731;28;20078;-80
2022/10/09 05:41:54;;;;;;;30.25;25.05;;;;;;;18.66;67.77;101664.13;5004626;28;20141;-81
2022/10/09 05:44:20;;;;;;;35.22;25.15;;;;;;;18.72;67.98;101668.84;5003519;28;20054;-80
2022/10/09 05:46:47;;;;;;;37.58;26.30;;;;;;;18.62;68.12;101657.38;4988904;28;20120;-80
2022/10/09 05:49:13;;;;;;;37.38;25.50;;;;;;;18.57;67.69;101639.91;4995729;28;20129;-81
2022/10/09 05:51:41;;;;;;;28.05;20.48;;;;;;;18.70;67.54;101652.03;5005922;28;20176;-80
2022/10/09 05:54:15;;;;;;;24.05;18.92;;;;;;;18.62;67.45;101639.41;5006211;28;20056;-81
2022/10/09 05:56:43;;;;;;;31.40;22.20;;;;;;;18.68;67.14;101656.72;5007773;28;20136;-81
2022/10/09 05:59:18;;;;;;;25.90;20.80;;;;;;;18.83;67.14;101692.78;5006482;28;20621;-81
2022/10/09 06:01:47;;;;;;;30.35;21.33;;;;;;;18.29;67.10;101608.88;5005377;28;20057;-80
2022/10/09 06:04:18;;;;;;;34.50;22.20;;;;;;;18.86;67.44;101696.97;5007143;28;20060;-81
2022/10/09 06:06:47;;;;;;;26.83;19.98;;;;;;;18.83;67.09;101690.09;5022096;28;20060;-80
2022/10/09 06:09:21;;;;;;;33.83;22.17;;;;;;;18.72;66.94;101683.13;5007069;28;20410;-80
2022/10/09 06:11:49;;;;;;;27.52;20.08;;;;;;;18.83;67.01;101703.53;5022216;28;20295;-80
2022/10/09 06:14:17;;;;;;;27.25;20.40;;;;;;;18.67;67.59;101687.34;5022327;28;20096;-81
2022/10/09 06:16:44;;;;;;;32.78;21.92;;;;;;;18.58;67.38;101668.47;5007405;28;20073;-80
2022/10/09 06:19:13;;;;;;;25.92;21.65;;;;;;;18.82;67.57;101712.63;5005420;28;20136;-80
2022/10/09 06:21:42;;;;;;;23.42;18.80;;;;;;;18.80;67.05;101701.19;5006734;28;20141;-81
2022/10/09 06:24:19;;;;;;;26.73;19.48;;;;;;;18.86;67.41;101713.13;5006664;28;20049;-80
2022/10/09 06:26:52;;;;;;;33.03;20.58;;;;;;;18.67;67.40;101684.66;5018519;28;20439;-80
2022/10/09 06:29:19;;;;;;;34.92;21.83;;;;;;;18.91;67.40;101722.41;5005702;28;20141;-79
2022/10/09 06:31:45;;;;;;;28.02;20.65;;;;;;;18.90;67.35;101711.78;5021589;28;20084;-81
2022/10/09 06:34:12;;;;;;;31.95;23.08;;;;;;;18.98;67.35;101728.81;5021623;28;20042;-79
2022/10/09 06:36:38;;;;;;;37.55;24.83;;;;;;;18.74;67.86;101699.13;5020885;28;20045;-81
2022/10/09 06:39:07;;;;;;;36.05;25.30;;;;;;;18.94;68.18;101738.22;5004796;28;20078;-80
2022/10/09 06:41:34;;;;;;;42.03;26.67;;;;;;;18.89;68.26;101727.09;5021870;28;20049;-80
2022/10/09 06:44:06;;;;;;;52.92;29.92;;;;;;;18.98;69.67;101739.59;5021180;28;20141;-80
2022/10/09 06:46:36;;;;;;;52.78;31.00;;;;;;;18.88;69.80;101727.25;5021349;28;20069;-80
2022/10/09 06:49:04;;;;;;;53.45;30.88;;;;;;;18.94;70.60;101735.53;4998790;28;20046;-80
2022/10/09 06:51:31;;;;;;;47.83;30.50;;;;;;;19.06;71.03;101757.59;5004597;28;20052;-81
2022/10/09 06:54:00;;;;;;;57.13;32.88;;;;;;;19.08;71.48;101757.41;5005012;28;20053;-82
2022/10/09 06:56:31;;;;;;;52.47;28.30;;;;;;;19.03;71.42;101744.47;5004945;28;20133;-81
2022/10/09 06:59:02;;;;;;;55.35;30.05;;;;;;;19.09;71.39;101756.41;5005986;28;20052;-82
2022/10/09 07:01:30;;;;;;;;;;;;;;;19.16;71.74;101758.28;4999179;28;20540;-81
2022/10/09 07:04:03;;;;;;;54.28;29.70;;;;;;;19.17;71.37;101759.13;4984951;28;20163;-83
2022/10/09 07:06:31;;;;;;;60.45;33.20;;;;;;;18.63;71.85;101672.53;4986366;28;20328;-82
2022/10/09 07:09:00;;;;;;;66.65;31.75;;;;;;;19.16;71.47;101754.75;5004407;28;20049;-82
2022/10/09 07:11:33;;;;;;;58.40;33.40;;;;;;;18.95;71.38;101712.97;5021180;28;20077;-83
2022/10/09 07:14:02;;;;;;;66.53;33.65;;;;;;;19.26;72.14;101768.91;4994569;28;20407;-82
2022/10/09 07:16:37;;;;;;;75.30;35.47;;;;;;;19.27;72.58;101770.56;4990057;28;20053;-82
2022/10/09 07:19:09;;;;;;;70.63;36.03;;;;;;;19.14;73.37;101756.78;5004948;28;20046;-81
2022/10/09 07:21:40;;;;;;;69.82;35.63;;;;;;;19.25;73.14;101780.69;5005582;28;20156;-80
2022/10/09 07:24:07;;;;;;;68.97;37.28;;;;;;;18.86;72.67;101714.00;5004433;28;20085;-79
2022/10/09 07:26:37;;;;;;;72.15;35.55;;;;;;;19.12;73.00;101750.69;5000937;28;20046;-81
2022/10/09 07:29:06;;;;;;;77.95;39.47;;;;;;;19.22;73.63;101783.69;5004454;28;20060;-79
2022/10/09 07:31:33;;;;;;;77.55;38.17;;;;;;;19.18;73.72;101776.97;5004677;28;20057;-79
2022/10/09 07:34:00;;;;;;;78.28;39.50;;;;;;;19.00;73.44;101742.97;5020868;28;20595;-80
2022/10/09 07:36:26;;;;;;;70.25;36.88;;;;;;;18.98;73.30;101746.78;5003336;28;20050;-81
2022/10/09 07:38:55;;;;;;;71.85;34.47;;;;;;;19.19;73.09;101767.88;5020621;28;20528;-82
2022/10/09 07:41:24;;;;;;;65.82;34.03;;;;;;;19.23;73.03;101769.25;5004266;28;20132;-82
2022/10/09 07:43:51;;;;;;;68.78;35.63;;;;;;;19.34;72.71;101782.38;5004105;28;20056;-81
2022/10/09 07:46:19;;;;;;;69.15;35.15;;;;;;;19.37;72.59;101771.28;5020782;28;20058;-82
2022/10/09 07:48:46;;;;;;;62.53;35.53;;;;;;;19.32;72.76;101759.31;4999765;28;20122;-83
2022/10/09 07:51:26;;;;;;;85.38;40.72;;;;;;;19.26;73.54;101741.97;5005723;28;20089;-82
2022/10/09 07:53:53;;;;;;;79.03;40.13;;;;;;;19.51;73.72;101783.25;5004547;28;20053;-82
2022/10/09 07:56:28;;;;;;;81.15;40.45;;;;;;;19.07;73.46;101697.38;5005356;28;20048;-82
2022/10/09 07:58:57;;;;;;;74.43;41.03;;;;;;;19.65;73.30;101774.50;5007711;28;20056;-82
2022/10/09 08:01:26;;;;;;;80.10;40.83;;;;;;;19.15;73.14;101692.03;5020862;28;20136;-82
2022/10/09 08:03:53;;;;;;;69.40;38.15;;;;;;;19.68;73.41;101775.22;4995405;28;20496;-82
2022/10/09 08:06:20;;;;;;;73.35;37.10;;;;;;;19.54;73.16;101744.34;4990325;28;20054;-82
2022/10/09 08:08:52;;;;;;;68.38;36.85;;;;;;;19.77;73.25;101776.91;4985504;28;20074;-83
2022/10/09 08:11:20;;;;;;;;;;;;;;;19.84;73.12;101773.38;5005870;28;20042;-81
2022/10/09 08:13:48;;;;;;;67.28;35.50;;;;;;;19.71;72.88;101743.41;4995622;28;19926;-81
2022/10/09 08:16:16;;;;;;;82.15;38.28;;;;;;;18.63;73.35;101583.78;5001864;28;20148;-83
2022/10/09 08:18:43;;;;;;;65.43;35.10;;;;;;;19.79;73.51;101781.13;5005340;28;20042;-79
2022/10/09 08:21:12;;;;;;;71.47;37.20;;;;;;;19.74;73.79;101770.00;5004100;28;20112;-83
2022/10/09 08:23:38;;;;;;;73.75;36.42;;;;;;;19.95;72.91;101776.72;5003973;28;20056;-81
2022/10/09 08:26:15;;;;;;;70.85;36.72;;;;;;;19.23;73.90;101660.72;5004919;28;20057;-84
2022/10/09 08:28:42;;;;;;;83.28;38.47;;;;;;;19.68;73.90;101732.94;5005547;28;20054;-82
2022/10/09 08:31:14;;;;;;;72.45;39.00;;;;;;;19.61;74.09;101721.13;5020803;28;20050;-82
2022/10/09 08:33:41;;;;;;;77.60;39.25;;;;;;;20.05;73.61;101756.69;5004186;28;20075;-81
2022/10/09 08:36:10;;;;;;;87.20;42.72;;;;;;;20.17;73.25;101756.31;5001362;28;20061;-82
2022/10/09 08:38:37;;;;;;;80.18;40.13;;;;;;;20.12;73.48;101755.97;5000473;28;20060;-81
2022/10/09 08:41:22;;;;;;;82.60;39.78;;;;;;;19.80;73.43;101695.72;5001065;28;20057;-82
2022/10/09 08:43:54;;;;;;;81.93;41.85;;;;;;;20.21;72.82;101736.09;5003804;28;20076;-81
2022/10/09 08:46:28;;;;;;;81.35;39.63;;;;;;;20.55;71.83;101770.03;5019108;28;20112;-81
2022/10/09 08:48:55;;;;;;;91.88;45.30;;;;;;;20.31;72.86;101757.47;4994229;28;20119;-83
2022/10/09 08:51:27;;;;;;;100.30;47.28;;;;;;;20.19;73.02;101738.94;5007109;28;20041;-82
2022/10/09 08:54:03;;;;;;;88.78;44.45;;;;;;;20.31;73.79;101773.63;5007280;28;20136;-81
2022/10/09 08:56:32;;;;;;;92.10;44.15;;;;;;;20.31;73.48;101773.63;5007703;28;20137;-80
2022/10/09 08:59:00;;;;;;;99.85;44.25;;;;;;;20.31;74.37;101777.16;5004848;28;20134;-81
2022/10/09 09:01:59;;;;;;;104.32;46.15;;;;;;;20.34;74.01;101765.19;5005980;28;20068;-80
2022/10/09 09:04:58;;;;;;;108.90;45.97;;;;;;;20.40;74.61;101780.69;4987474;28;20054;-82
2022/10/09 09:07:41;;;;;;;120.07;48.92;;;;;;;20.35;74.75;101764.19;4985784;28;20056;-78
2022/10/09 09:10:24;;;;;;;109.57;53.70;;;;;;;20.13;74.51;101725.34;4999865;28;20074;-79
2022/10/09 09:12:59;;;;;;;125.22;52.83;;;;;;;20.45;74.30;101776.47;5007761;28;20054;-79
2022/10/09 09:16:01;;;;;;;115.03;52.47;;;;;;;20.57;74.27;101784.22;5006978;28;20060;-80
2022/10/09 09:18:37;;;;;;;;;;;;;;;20.65;74.35;101794.97;5006888;28;20045;-80
2022/10/09 09:21:31;;;;;;;103.88;50.67;;;;;;;20.61;74.37;101766.69;5007526;28;20371;-81
2022/10/09 09:24:01;;;;;;;119.45;51.88;;;;;;;20.86;73.62;101783.63;5010043;28;20125;-81
2022/10/09 09:26:28;;;;;;;113.28;51.85;;;;;;;20.84;73.42;101774.84;4993083;28;20046;-82
2022/10/09 09:29:00;;;;;;;124.28;56.72;;;;;;;20.98;72.93;101792.16;4997945;28;20046;-82
2022/10/09 09:31:34;;;;;;;127.85;59.10;;;;;;;20.62;73.87;101758.41;5022912;28;20554;-81
2022/10/09 09:34:10;;;;;;;138.13;63.47;;;;;;;20.81;74.11;101796.78;5006645;28;20189;-82
2022/10/09 09:36:54;;;;;;;124.93;57.67;;;;;;;20.87;73.70;101788.81;5023029;28;20064;-81
2022/10/09 09:39:24;;;;;;;120.72;55.55;;;;;;;20.89;73.75;101799.44;4987060;28;20142;-82
2022/10/09 09:42:16;;;;;;;117.03;55.38;;;;;;;20.87;74.03;101790.69;4986826;28;20409;-81
2022/10/09 09:44:56;;;;;;;119.80;56.83;;;;;;;19.76;74.21;101616.28;4987125;28;20502;-82
2022/10/09 09:47:37;;;;;;;119.93;60.30;;;;;;;20.72;74.61;101762.75;4998567;28;20305;-81
2022/10/09 09:50:06;;;;;;;117.53;56.90;;;;;;;20.77;74.37;101758.50;5000048;28;20323;-81
2022/10/09 09:52:54;;;;;;;114.40;54.58;;;;;;;20.95;73.91;101779.88;5006674;28;20057;-81
2022/10/09 09:55:27;;;;;;;107.57;55.05;;;;;;;21.02;73.49;101783.53;5006048;28;20137;-82
2022/10/09 09:58:06;;;;;;;103.65;54.45;;;;;;;21.12;72.43;101746.34;5006399;28;20064;-82
2022/10/09 10:00:34;;;;;;;104.57;52.78;;;;;;;21.31;72.74;101784.69;5022284;28;20054;-81
2022/10/09 10:03:20;;;;;;;92.10;53.35;;;;;;;21.20;72.34;101758.97;5002950;28;20062;-84
2022/10/09 10:05:46;;;;;;;85.43;48.45;;;;;;;21.47;71.87;101773.81;5004850;28;20077;-81
2022/10/09 10:08:14;;;;;;;90.18;48.88;;;;;;;21.64;70.95;101765.59;5006350;28;20046;-81
2022/10/09 10:10:46;;;;;;;83.80;47.85;;;;;;;21.70;70.32;101759.47;5002822;28;20133;-81
2022/10/09 10:13:36;;;;;;;86.72;48.05;;;;;;;21.81;69.95;101767.16;4989354;28;20086;-81
2022/10/09 10:16:06;;;;;;;77.32;42.92;;;;;;;21.79;70.26;101754.84;4987832;28;20078;-81
2022/10/09 10:18:39;;;;;;;77.10;44.78;;;;;;;21.73;69.23;101732.94;4987991;28;20050;-80
2022/10/09 10:21:13;;;;;;;71.90;43.53;;;;;;;21.69;68.57;101682.13;4985534;28;20046;-82
2022/10/09 10:23:44;;;;;;;58.70;38.10;;;;;;;22.01;68.39;101724.22;4984552;28;20142;-82
2022/10/09 10:26:42;;;;;;;61.67;39.92;;;;;;;22.43;66.96;101754.38;4984814;28;20056;-81
2022/10/09 10:29:30;;;;;;;68.63;38.95;;;;;;;22.60;66.93;101761.31;4990892;28;20377;-81
2022/10/09 10:32:09;;;;;;;62.78;39.30;;;;;;;22.61;66.79;101765.69;5020309;28;20060;-80
2022/10/09 10:34:58;;;;;;;54.28;33.70;;;;;;;22.59;65.96;101741.50;5005333;28;20050;-82
2022/10/09 10:37:41;;;;;;;51.92;32.75;;;;;;;22.81;64.69;101758.63;5004670;28;20048;-81
2022/10/09 10:40:32;;;;;;;53.08;36.13;;;;;;;22.70;64.98;101761.84;5021688;28;20046;-82
2022/10/09 10:43:10;;;;;;;55.30;41.78;;;;;;;22.86;65.51;101749.13;5021779;28;20140;-81
2022/10/09 10:46:04;;;;;;;49.42;32.33;;;;;;;23.11;65.43;101753.22;5005368;28;20050;-81
2022/10/09 10:48:36;;;;;;;50.38;30.63;;;;;;;23.45;64.17;101747.09;5005321;28;20041;-81
2022/10/09 10:51:50;;;;;;;46.35;32.45;;;;;;;23.41;63.50;101729.53;5021326;28;20077;-80
2022/10/09 10:54:34;;;;;;;40.72;27.75;;;;;;;23.80;62.48;101751.81;4967665;28;20058;-82
2022/10/09 10:57:06;;;;;;;32.33;22.90;;;;;;;23.85;61.19;101749.34;5005201;28;20068;-82
2022/10/09 10:59:41;;;;;;;;;;;;;;;23.81;59.38;101748.91;5005502;28;20060;-81
2022/10/09 11:02:08;;;;;;;32.38;24.45;;;;;;;23.75;60.44;101748.84;5006460;28;20004;-82
2022/10/09 11:04:56;;;;;;;31.55;23.00;;;;;;;23.77;59.88;101744.06;5004741;28;20052;-80
2022/10/09 11:07:49;;;;;;;34.47;22.63;;;;;;;23.71;59.84;101750.22;5001601;28;20047;-81
2022/10/09 11:11:00;;;;;;;33.65;20.83;;;;;;;23.60;60.09;101730.75;4997618;28;20049;-82
2022/10/09 11:13:35;;;;;;;37.53;23.60;;;;;;;23.56;60.18;101751.16;5004514;28;20060;-83
2022/10/09 11:16:13;;;;;;;35.88;23.98;;;;;;;23.62;60.61;101744.97;5004497;28;20061;-81
2022/10/09 11:18:55;;;;;;;33.45;22.23;;;;;;;23.61;60.30;101742.44;4985485;28;20061;-82
2022/10/09 11:21:41;;;;;;;34.88;21.23;;;;;;;23.56;60.79;101743.00;5001737;28;20145;-83
2022/10/09 11:24:14;;;;;;;24.05;18.23;;;;;;;23.57;60.72;101733.88;4955024;28;20050;-81
2022/10/09 11:26:54;;;;;;;31.23;18.55;;;;;;;23.64;60.75;101734.78;5001290;28;20072;-81
2022/10/09 11:29:29;;;;;;;28.90;18.25;;;;;;;23.27;60.88;101660.00;5015957;28;20343;-82